SCEL 201700Z 16011KT 130V190 CAVOK 27/12 Q1014 NOSIG